sensor_id;sensor_type;location;lat;lon;timestamp;P1;durP1;ratioP1;P2;durP2;ratioP2
11935;SDS011;6027;48.576;9.180;2023-05-29T00:02:07;6.32;;;3.95;;
11935;SDS011;6027;48.576;9.180;2023-05-29T00:04:32;5.43;;;3.63;;
11935;SDS011;6027;48.576;9.180;2023-05-29T00:06:58;6.85;;;3.78;;
11935;SDS011;6027;48.576;9.180;2023-05-29T00:09:23;5.88;;;3.58;;
11935;SDS011;6027;48.576;9.180;2023-05-29T00:11:49;5.65;;;4.03;;
11935;SDS011;6027;48.576;9.180;2023-05-29T00:14:16;5.93;;;3.75;;
11935;SDS011;6027;48.576;9.180;2023-05-29T00:16:44;6.22;;;3.40;;
11935;SDS011;6027;48.576;9.180;2023-05-29T00:19:14;6.43;;;3.63;;
11935;SDS011;6027;48.576;9.180;2023-05-29T00:21:42;7.47;;;3.67;;
11935;SDS011;6027;48.576;9.180;2023-05-29T00:24:08;4.13;;;3.60;;
11935;SDS011;6027;48.576;9.180;2023-05-29T00:26:33;6.63;;;3.50;;
11935;SDS011;6027;48.576;9.180;2023-05-29T00:28:59;6.63;;;3.47;;
11935;SDS011;6027;48.576;9.180;2023-05-29T00:31:24;7.00;;;3.53;;
11935;SDS011;6027;48.576;9.180;2023-05-29T00:33:50;6.40;;;3.72;;
11935;SDS011;6027;48.576;9.180;2023-05-29T00:36:18;6.25;;;3.58;;
11935;SDS011;6027;48.576;9.180;2023-05-29T00:38:44;11.90;;;4.18;;
11935;SDS011;6027;48.576;9.180;2023-05-29T00:41:13;6.47;;;3.47;;
11935;SDS011;6027;48.576;9.180;2023-05-29T00:43:40;4.57;;;3.30;;
11935;SDS011;6027;48.576;9.180;2023-05-29T00:46:06;5.45;;;3.67;;
11935;SDS011;6027;48.576;9.180;2023-05-29T00:48:32;6.63;;;3.40;;
11935;SDS011;6027;48.576;9.180;2023-05-29T00:50:57;8.98;;;3.55;;
11935;SDS011;6027;48.576;9.180;2023-05-29T00:53:23;6.05;;;3.53;;
11935;SDS011;6027;48.576;9.180;2023-05-29T00:55:48;4.57;;;3.35;;
11935;SDS011;6027;48.576;9.180;2023-05-29T00:58:14;4.65;;;3.30;;
11935;SDS011;6027;48.576;9.180;2023-05-29T01:00:40;6.63;;;3.42;;
11935;SDS011;6027;48.576;9.180;2023-05-29T01:03:06;6.07;;;3.83;;
11935;SDS011;6027;48.576;9.180;2023-05-29T01:05:33;4.25;;;3.10;;
11935;SDS011;6027;48.576;9.180;2023-05-29T01:08:00;6.65;;;3.58;;
11935;SDS011;6027;48.576;9.180;2023-05-29T01:10:26;4.43;;;3.50;;
11935;SDS011;6027;48.576;9.180;2023-05-29T01:13:27;4.88;;;3.38;;
11935;SDS011;6027;48.576;9.180;2023-05-29T01:21:22;3.88;;;3.47;;
11935;SDS011;6027;48.576;9.180;2023-05-29T01:24:03;6.38;;;3.90;;
11935;SDS011;6027;48.576;9.180;2023-05-29T01:29:24;4.93;;;3.83;;
11935;SDS011;6027;48.576;9.180;2023-05-29T01:31:53;5.75;;;4.00;;
11935;SDS011;6027;48.576;9.180;2023-05-29T01:34:19;5.35;;;3.70;;
11935;SDS011;6027;48.576;9.180;2023-05-29T01:36:45;4.07;;;3.47;;
11935;SDS011;6027;48.576;9.180;2023-05-29T01:39:14;5.60;;;3.97;;
11935;SDS011;6027;48.576;9.180;2023-05-29T01:41:40;5.85;;;4.03;;
11935;SDS011;6027;48.576;9.180;2023-05-29T01:44:07;6.07;;;3.50;;
11935;SDS011;6027;48.576;9.180;2023-05-29T01:46:34;5.95;;;3.67;;
11935;SDS011;6027;48.576;9.180;2023-05-29T01:49:01;5.45;;;3.72;;
11935;SDS011;6027;48.576;9.180;2023-05-29T01:51:27;6.40;;;3.90;;
11935;SDS011;6027;48.576;9.180;2023-05-29T01:53:53;5.90;;;3.78;;
11935;SDS011;6027;48.576;9.180;2023-05-29T01:56:19;4.88;;;3.28;;
11935;SDS011;6027;48.576;9.180;2023-05-29T01:58:44;5.35;;;3.63;;
11935;SDS011;6027;48.576;9.180;2023-05-29T02:01:11;8.07;;;3.58;;
11935;SDS011;6027;48.576;9.180;2023-05-29T02:03:36;8.50;;;3.90;;
11935;SDS011;6027;48.576;9.180;2023-05-29T02:06:01;4.88;;;3.40;;
11935;SDS011;6027;48.576;9.180;2023-05-29T02:08:27;6.10;;;3.60;;
11935;SDS011;6027;48.576;9.180;2023-05-29T02:10:53;5.18;;;3.45;;
11935;SDS011;6027;48.576;9.180;2023-05-29T02:13:18;3.92;;;3.20;;
11935;SDS011;6027;48.576;9.180;2023-05-29T02:15:44;4.85;;;3.20;;
11935;SDS011;6027;48.576;9.180;2023-05-29T02:18:10;6.55;;;3.15;;
11935;SDS011;6027;48.576;9.180;2023-05-29T02:20:39;5.88;;;3.58;;
11935;SDS011;6027;48.576;9.180;2023-05-29T02:23:05;5.30;;;3.47;;
11935;SDS011;6027;48.576;9.180;2023-05-29T02:25:30;5.25;;;3.17;;
11935;SDS011;6027;48.576;9.180;2023-05-29T02:27:56;6.30;;;3.75;;
11935;SDS011;6027;48.576;9.180;2023-05-29T02:30:21;7.47;;;3.38;;
11935;SDS011;6027;48.576;9.180;2023-05-29T02:32:47;5.95;;;3.67;;
11935;SDS011;6027;48.576;9.180;2023-05-29T02:35:12;7.10;;;3.78;;
11935;SDS011;6027;48.576;9.180;2023-05-29T02:37:43;5.97;;;3.42;;
11935;SDS011;6027;48.576;9.180;2023-05-29T02:40:08;4.22;;;3.30;;
11935;SDS011;6027;48.576;9.180;2023-05-29T02:42:35;4.68;;;3.60;;
11935;SDS011;6027;48.576;9.180;2023-05-29T02:45:00;5.90;;;3.80;;
11935;SDS011;6027;48.576;9.180;2023-05-29T02:47:26;5.18;;;4.03;;
11935;SDS011;6027;48.576;9.180;2023-05-29T02:49:51;5.75;;;3.55;;
11935;SDS011;6027;48.576;9.180;2023-05-29T02:52:16;4.65;;;3.70;;
11935;SDS011;6027;48.576;9.180;2023-05-29T02:54:42;4.32;;;3.65;;
11935;SDS011;6027;48.576;9.180;2023-05-29T02:57:07;5.85;;;3.90;;
11935;SDS011;6027;48.576;9.180;2023-05-29T02:59:33;6.03;;;3.70;;
11935;SDS011;6027;48.576;9.180;2023-05-29T03:01:58;5.72;;;3.83;;
11935;SDS011;6027;48.576;9.180;2023-05-29T03:04:23;5.18;;;3.35;;
11935;SDS011;6027;48.576;9.180;2023-05-29T03:06:49;5.80;;;4.00;;
11935;SDS011;6027;48.576;9.180;2023-05-29T03:09:15;6.13;;;3.33;;
11935;SDS011;6027;48.576;9.180;2023-05-29T03:12:01;4.55;;;3.53;;
11935;SDS011;6027;48.576;9.180;2023-05-29T03:14:28;4.03;;;3.33;;
11935;SDS011;6027;48.576;9.180;2023-05-29T03:16:53;5.07;;;3.95;;
11935;SDS011;6027;48.576;9.180;2023-05-29T03:19:20;7.00;;;3.95;;
11935;SDS011;6027;48.576;9.180;2023-05-29T03:21:45;5.70;;;3.40;;
11935;SDS011;6027;48.576;9.180;2023-05-29T03:24:11;4.55;;;3.75;;
11935;SDS011;6027;48.576;9.180;2023-05-29T03:26:38;5.20;;;3.45;;
11935;SDS011;6027;48.576;9.180;2023-05-29T03:29:04;5.70;;;3.85;;
11935;SDS011;6027;48.576;9.180;2023-05-29T03:31:30;5.57;;;3.95;;
11935;SDS011;6027;48.576;9.180;2023-05-29T03:33:56;4.65;;;3.45;;
11935;SDS011;6027;48.576;9.180;2023-05-29T03:36:21;4.10;;;3.40;;
11935;SDS011;6027;48.576;9.180;2023-05-29T03:38:47;6.05;;;4.00;;
11935;SDS011;6027;48.576;9.180;2023-05-29T03:41:12;4.28;;;3.50;;
11935;SDS011;6027;48.576;9.180;2023-05-29T03:43:38;6.15;;;3.83;;
11935;SDS011;6027;48.576;9.180;2023-05-29T03:46:03;4.60;;;3.60;;
11935;SDS011;6027;48.576;9.180;2023-05-29T03:48:29;4.82;;;3.65;;
11935;SDS011;6027;48.576;9.180;2023-05-29T03:50:54;5.47;;;3.85;;
11935;SDS011;6027;48.576;9.180;2023-05-29T03:53:20;5.07;;;3.85;;
11935;SDS011;6027;48.576;9.180;2023-05-29T03:55:45;5.00;;;3.80;;
11935;SDS011;6027;48.576;9.180;2023-05-29T03:58:11;9.88;;;3.90;;
11935;SDS011;6027;48.576;9.180;2023-05-29T04:00:37;6.90;;;4.70;;
11935;SDS011;6027;48.576;9.180;2023-05-29T04:03:03;5.43;;;4.45;;
11935;SDS011;6027;48.576;9.180;2023-05-29T04:05:28;5.00;;;3.70;;
11935;SDS011;6027;48.576;9.180;2023-05-29T04:07:54;6.50;;;3.88;;
11935;SDS011;6027;48.576;9.180;2023-05-29T04:10:19;4.90;;;3.63;;
11935;SDS011;6027;48.576;9.180;2023-05-29T04:12:45;4.22;;;3.67;;
11935;SDS011;6027;48.576;9.180;2023-05-29T04:15:10;5.68;;;3.58;;
11935;SDS011;6027;48.576;9.180;2023-05-29T04:17:35;5.00;;;3.70;;
11935;SDS011;6027;48.576;9.180;2023-05-29T04:20:01;7.13;;;3.55;;
11935;SDS011;6027;48.576;9.180;2023-05-29T04:22:33;4.53;;;3.63;;
11935;SDS011;6027;48.576;9.180;2023-05-29T04:24:58;4.50;;;3.47;;
11935;SDS011;6027;48.576;9.180;2023-05-29T04:27:24;6.97;;;3.75;;
11935;SDS011;6027;48.576;9.180;2023-05-29T04:29:49;5.32;;;3.58;;
11935;SDS011;6027;48.576;9.180;2023-05-29T04:32:14;5.68;;;3.75;;
11935;SDS011;6027;48.576;9.180;2023-05-29T04:34:40;6.85;;;3.50;;
11935;SDS011;6027;48.576;9.180;2023-05-29T04:37:05;6.97;;;4.07;;
11935;SDS011;6027;48.576;9.180;2023-05-29T04:39:31;5.47;;;3.88;;
11935;SDS011;6027;48.576;9.180;2023-05-29T04:41:57;5.97;;;4.00;;
11935;SDS011;6027;48.576;9.180;2023-05-29T04:44:24;4.30;;;3.58;;
11935;SDS011;6027;48.576;9.180;2023-05-29T04:46:51;4.47;;;3.60;;
11935;SDS011;6027;48.576;9.180;2023-05-29T04:49:17;5.70;;;3.70;;
11935;SDS011;6027;48.576;9.180;2023-05-29T04:51:43;6.45;;;3.85;;
11935;SDS011;6027;48.576;9.180;2023-05-29T04:54:10;5.60;;;3.70;;
11935;SDS011;6027;48.576;9.180;2023-05-29T04:59:03;5.15;;;3.65;;
11935;SDS011;6027;48.576;9.180;2023-05-29T05:01:30;8.52;;;3.90;;
11935;SDS011;6027;48.576;9.180;2023-05-29T05:03:59;6.93;;;4.35;;
11935;SDS011;6027;48.576;9.180;2023-05-29T05:06:25;5.70;;;3.85;;
11935;SDS011;6027;48.576;9.180;2023-05-29T05:08:51;5.57;;;4.10;;
11935;SDS011;6027;48.576;9.180;2023-05-29T05:11:21;5.72;;;3.83;;
11935;SDS011;6027;48.576;9.180;2023-05-29T05:13:48;5.85;;;4.03;;
11935;SDS011;6027;48.576;9.180;2023-05-29T05:16:13;5.15;;;3.97;;
11935;SDS011;6027;48.576;9.180;2023-05-29T05:18:39;6.70;;;4.20;;
11935;SDS011;6027;48.576;9.180;2023-05-29T05:21:04;5.07;;;3.90;;
11935;SDS011;6027;48.576;9.180;2023-05-29T05:23:30;4.68;;;4.07;;
11935;SDS011;6027;48.576;9.180;2023-05-29T05:25:56;4.78;;;3.90;;
11935;SDS011;6027;48.576;9.180;2023-05-29T05:28:21;6.25;;;4.00;;
11935;SDS011;6027;48.576;9.180;2023-05-29T05:30:47;8.90;;;4.65;;
11935;SDS011;6027;48.576;9.180;2023-05-29T05:33:12;8.18;;;4.40;;
11935;SDS011;6027;48.576;9.180;2023-05-29T05:35:38;7.35;;;4.50;;
11935;SDS011;6027;48.576;9.180;2023-05-29T05:38:03;6.20;;;4.13;;
11935;SDS011;6027;48.576;9.180;2023-05-29T05:40:29;7.72;;;4.78;;
11935;SDS011;6027;48.576;9.180;2023-05-29T05:42:54;6.55;;;4.30;;
11935;SDS011;6027;48.576;9.180;2023-05-29T05:45:19;7.70;;;4.88;;
11935;SDS011;6027;48.576;9.180;2023-05-29T05:47:45;7.25;;;4.35;;
11935;SDS011;6027;48.576;9.180;2023-05-29T05:50:11;6.10;;;4.35;;
11935;SDS011;6027;48.576;9.180;2023-05-29T05:52:37;6.28;;;4.68;;
11935;SDS011;6027;48.576;9.180;2023-05-29T05:55:02;6.03;;;4.70;;
11935;SDS011;6027;48.576;9.180;2023-05-29T05:57:28;6.15;;;4.85;;
11935;SDS011;6027;48.576;9.180;2023-05-29T05:59:54;6.38;;;4.45;;
11935;SDS011;6027;48.576;9.180;2023-05-29T06:02:19;5.32;;;4.10;;
11935;SDS011;6027;48.576;9.180;2023-05-29T06:04:45;6.63;;;4.50;;
11935;SDS011;6027;48.576;9.180;2023-05-29T06:07:10;7.05;;;4.82;;
11935;SDS011;6027;48.576;9.180;2023-05-29T06:09:36;5.90;;;4.90;;
11935;SDS011;6027;48.576;9.180;2023-05-29T06:12:02;5.90;;;4.32;;
11935;SDS011;6027;48.576;9.180;2023-05-29T06:14:28;6.93;;;4.90;;
11935;SDS011;6027;48.576;9.180;2023-05-29T06:16:53;5.75;;;4.38;;
11935;SDS011;6027;48.576;9.180;2023-05-29T06:19:19;8.13;;;4.50;;
11935;SDS011;6027;48.576;9.180;2023-05-29T06:21:45;6.35;;;4.72;;
11935;SDS011;6027;48.576;9.180;2023-05-29T06:24:11;7.07;;;4.50;;
11935;SDS011;6027;48.576;9.180;2023-05-29T06:26:37;6.53;;;4.32;;
11935;SDS011;6027;48.576;9.180;2023-05-29T06:29:03;5.15;;;4.28;;
11935;SDS011;6027;48.576;9.180;2023-05-29T06:31:28;6.15;;;4.18;;
11935;SDS011;6027;48.576;9.180;2023-05-29T06:33:54;6.80;;;4.70;;
11935;SDS011;6027;48.576;9.180;2023-05-29T06:36:29;5.25;;;3.80;;
11935;SDS011;6027;48.576;9.180;2023-05-29T06:38:54;10.13;;;4.72;;
11935;SDS011;6027;48.576;9.180;2023-05-29T06:41:20;7.38;;;4.38;;
11935;SDS011;6027;48.576;9.180;2023-05-29T06:43:46;5.10;;;4.10;;
11935;SDS011;6027;48.576;9.180;2023-05-29T06:46:12;9.57;;;4.55;;
11935;SDS011;6027;48.576;9.180;2023-05-29T06:48:37;8.57;;;4.75;;
11935;SDS011;6027;48.576;9.180;2023-05-29T06:51:03;6.88;;;4.05;;
11935;SDS011;6027;48.576;9.180;2023-05-29T06:53:36;6.03;;;4.57;;
11935;SDS011;6027;48.576;9.180;2023-05-29T06:56:05;6.18;;;4.18;;
11935;SDS011;6027;48.576;9.180;2023-05-29T06:58:30;4.88;;;4.38;;
11935;SDS011;6027;48.576;9.180;2023-05-29T07:00:56;9.82;;;4.82;;
11935;SDS011;6027;48.576;9.180;2023-05-29T07:03:23;7.25;;;4.60;;
11935;SDS011;6027;48.576;9.180;2023-05-29T07:05:50;7.03;;;4.47;;
11935;SDS011;6027;48.576;9.180;2023-05-29T07:08:15;6.75;;;4.20;;
11935;SDS011;6027;48.576;9.180;2023-05-29T07:10:41;6.55;;;4.30;;
11935;SDS011;6027;48.576;9.180;2023-05-29T07:13:06;7.13;;;4.10;;
11935;SDS011;6027;48.576;9.180;2023-05-29T07:15:32;5.53;;;4.18;;
11935;SDS011;6027;48.576;9.180;2023-05-29T07:17:58;5.63;;;4.20;;
11935;SDS011;6027;48.576;9.180;2023-05-29T07:20:23;4.80;;;3.95;;
11935;SDS011;6027;48.576;9.180;2023-05-29T07:22:49;5.80;;;4.05;;
11935;SDS011;6027;48.576;9.180;2023-05-29T07:25:14;8.93;;;4.28;;
11935;SDS011;6027;48.576;9.180;2023-05-29T07:27:40;5.07;;;4.05;;
11935;SDS011;6027;48.576;9.180;2023-05-29T07:30:05;7.40;;;3.67;;
11935;SDS011;6027;48.576;9.180;2023-05-29T07:32:32;6.43;;;4.20;;
11935;SDS011;6027;48.576;9.180;2023-05-29T07:34:57;6.85;;;4.10;;
11935;SDS011;6027;48.576;9.180;2023-05-29T07:37:23;8.60;;;3.95;;
11935;SDS011;6027;48.576;9.180;2023-05-29T07:39:48;5.43;;;4.18;;
11935;SDS011;6027;48.576;9.180;2023-05-29T07:42:14;6.97;;;4.05;;
11935;SDS011;6027;48.576;9.180;2023-05-29T07:44:39;5.78;;;3.85;;
11935;SDS011;6027;48.576;9.180;2023-05-29T07:47:07;6.78;;;4.25;;
11935;SDS011;6027;48.576;9.180;2023-05-29T07:49:33;7.50;;;4.20;;
11935;SDS011;6027;48.576;9.180;2023-05-29T07:51:58;7.38;;;4.50;;
11935;SDS011;6027;48.576;9.180;2023-05-29T07:54:23;6.65;;;4.38;;
11935;SDS011;6027;48.576;9.180;2023-05-29T07:56:49;5.57;;;4.03;;
11935;SDS011;6027;48.576;9.180;2023-05-29T07:59:15;6.72;;;4.50;;
11935;SDS011;6027;48.576;9.180;2023-05-29T08:01:40;5.72;;;4.53;;
11935;SDS011;6027;48.576;9.180;2023-05-29T08:04:05;6.53;;;4.20;;
11935;SDS011;6027;48.576;9.180;2023-05-29T08:06:31;8.43;;;4.15;;
11935;SDS011;6027;48.576;9.180;2023-05-29T08:08:57;6.00;;;4.28;;
11935;SDS011;6027;48.576;9.180;2023-05-29T08:11:23;6.53;;;4.13;;
11935;SDS011;6027;48.576;9.180;2023-05-29T08:13:48;7.10;;;4.05;;
11935;SDS011;6027;48.576;9.180;2023-05-29T08:16:14;9.75;;;4.10;;
11935;SDS011;6027;48.576;9.180;2023-05-29T08:18:41;6.35;;;4.50;;
11935;SDS011;6027;48.576;9.180;2023-05-29T08:21:06;5.35;;;4.10;;
11935;SDS011;6027;48.576;9.180;2023-05-29T08:23:31;7.18;;;3.72;;
11935;SDS011;6027;48.576;9.180;2023-05-29T08:28:24;5.57;;;4.32;;
11935;SDS011;6027;48.576;9.180;2023-05-29T08:30:51;6.90;;;4.10;;
11935;SDS011;6027;48.576;9.180;2023-05-29T08:33:17;6.40;;;4.38;;
11935;SDS011;6027;48.576;9.180;2023-05-29T08:35:42;6.40;;;4.40;;
11935;SDS011;6027;48.576;9.180;2023-05-29T08:38:08;7.00;;;4.30;;
11935;SDS011;6027;48.576;9.180;2023-05-29T08:40:33;7.85;;;4.50;;
11935;SDS011;6027;48.576;9.180;2023-05-29T08:43:08;5.93;;;4.00;;
11935;SDS011;6027;48.576;9.180;2023-05-29T08:45:35;8.98;;;4.50;;
11935;SDS011;6027;48.576;9.180;2023-05-29T08:48:07;7.68;;;4.78;;
11935;SDS011;6027;48.576;9.180;2023-05-29T08:50:35;6.10;;;3.95;;
11935;SDS011;6027;48.576;9.180;2023-05-29T08:53:00;7.18;;;4.35;;
11935;SDS011;6027;48.576;9.180;2023-05-29T08:55:26;8.48;;;4.25;;
11935;SDS011;6027;48.576;9.180;2023-05-29T08:57:51;4.90;;;4.13;;
11935;SDS011;6027;48.576;9.180;2023-05-29T09:00:17;6.13;;;4.28;;
11935;SDS011;6027;48.576;9.180;2023-05-29T09:02:45;4.78;;;4.22;;
11935;SDS011;6027;48.576;9.180;2023-05-29T09:05:14;4.85;;;4.15;;
11935;SDS011;6027;48.576;9.180;2023-05-29T09:07:39;6.22;;;4.38;;
11935;SDS011;6027;48.576;9.180;2023-05-29T09:10:06;5.28;;;4.03;;
11935;SDS011;6027;48.576;9.180;2023-05-29T09:12:33;7.28;;;4.13;;
11935;SDS011;6027;48.576;9.180;2023-05-29T09:15:00;5.45;;;4.20;;
11935;SDS011;6027;48.576;9.180;2023-05-29T09:17:29;7.30;;;4.20;;
11935;SDS011;6027;48.576;9.180;2023-05-29T09:19:56;6.10;;;4.22;;
11935;SDS011;6027;48.576;9.180;2023-05-29T09:22:21;5.72;;;4.15;;
11935;SDS011;6027;48.576;9.180;2023-05-29T09:24:47;8.70;;;4.63;;
11935;SDS011;6027;48.576;9.180;2023-05-29T09:27:13;4.80;;;3.83;;
11935;SDS011;6027;48.576;9.180;2023-05-29T09:29:43;5.07;;;4.00;;
11935;SDS011;6027;48.576;9.180;2023-05-29T09:32:11;5.85;;;3.97;;
11935;SDS011;6027;48.576;9.180;2023-05-29T09:34:39;5.85;;;4.25;;
11935;SDS011;6027;48.576;9.180;2023-05-29T09:37:05;6.68;;;4.35;;
11935;SDS011;6027;48.576;9.180;2023-05-29T09:42:11;6.63;;;4.10;;
11935;SDS011;6027;48.576;9.180;2023-05-29T09:44:37;8.43;;;4.28;;
11935;SDS011;6027;48.576;9.180;2023-05-29T09:47:02;6.03;;;3.92;;
11935;SDS011;6027;48.576;9.180;2023-05-29T09:49:29;9.70;;;4.22;;
11935;SDS011;6027;48.576;9.180;2023-05-29T09:51:57;6.05;;;3.83;;
11935;SDS011;6027;48.576;9.180;2023-05-29T09:54:24;5.25;;;3.92;;
11935;SDS011;6027;48.576;9.180;2023-05-29T09:56:53;6.03;;;3.90;;
11935;SDS011;6027;48.576;9.180;2023-05-29T09:59:20;6.70;;;3.50;;
11935;SDS011;6027;48.576;9.180;2023-05-29T10:01:48;5.50;;;3.55;;
11935;SDS011;6027;48.576;9.180;2023-05-29T10:04:14;8.82;;;3.65;;
11935;SDS011;6027;48.576;9.180;2023-05-29T10:06:49;5.70;;;4.07;;
11935;SDS011;6027;48.576;9.180;2023-05-29T10:09:15;6.15;;;2.85;;
11935;SDS011;6027;48.576;9.180;2023-05-29T10:11:44;6.07;;;3.97;;
11935;SDS011;6027;48.576;9.180;2023-05-29T10:14:19;5.10;;;3.20;;
11935;SDS011;6027;48.576;9.180;2023-05-29T10:16:48;6.85;;;3.65;;
11935;SDS011;6027;48.576;9.180;2023-05-29T10:19:25;5.50;;;3.33;;
11935;SDS011;6027;48.576;9.180;2023-05-29T10:21:54;4.60;;;3.30;;
11935;SDS011;6027;48.576;9.180;2023-05-29T10:24:21;5.50;;;3.15;;
11935;SDS011;6027;48.576;9.180;2023-05-29T10:26:47;8.35;;;3.40;;
11935;SDS011;6027;48.576;9.180;2023-05-29T10:40:14;6.22;;;2.97;;
11935;SDS011;6027;48.576;9.180;2023-05-29T10:42:42;4.07;;;3.20;;
11935;SDS011;6027;48.576;9.180;2023-05-29T10:50:36;8.52;;;3.22;;
11935;SDS011;6027;48.576;9.180;2023-05-29T10:53:03;5.00;;;3.40;;
11935;SDS011;6027;48.576;9.180;2023-05-29T10:55:34;6.90;;;3.35;;
11935;SDS011;6027;48.576;9.180;2023-05-29T10:58:07;6.88;;;3.70;;
11935;SDS011;6027;48.576;9.180;2023-05-29T11:00:45;4.82;;;2.90;;
11935;SDS011;6027;48.576;9.180;2023-05-29T11:03:14;5.40;;;2.92;;
11935;SDS011;6027;48.576;9.180;2023-05-29T11:06:00;4.13;;;2.80;;
11935;SDS011;6027;48.576;9.180;2023-05-29T11:08:45;3.90;;;3.00;;
11935;SDS011;6027;48.576;9.180;2023-05-29T11:11:32;5.30;;;3.67;;
11935;SDS011;6027;48.576;9.180;2023-05-29T11:14:04;4.10;;;2.83;;
11935;SDS011;6027;48.576;9.180;2023-05-29T11:18:58;6.72;;;2.95;;
11935;SDS011;6027;48.576;9.180;2023-05-29T11:24:08;3.70;;;2.65;;
11935;SDS011;6027;48.576;9.180;2023-05-29T11:26:47;4.90;;;3.13;;
11935;SDS011;6027;48.576;9.180;2023-05-29T11:29:14;4.38;;;2.72;;
11935;SDS011;6027;48.576;9.180;2023-05-29T11:31:40;3.90;;;2.67;;
11935;SDS011;6027;48.576;9.180;2023-05-29T11:34:06;6.93;;;3.33;;
11935;SDS011;6027;48.576;9.180;2023-05-29T11:36:37;4.10;;;3.20;;
11935;SDS011;6027;48.576;9.180;2023-05-29T11:39:03;4.80;;;2.97;;
11935;SDS011;6027;48.576;9.180;2023-05-29T11:41:29;9.85;;;3.17;;
11935;SDS011;6027;48.576;9.180;2023-05-29T11:43:58;6.75;;;2.78;;
11935;SDS011;6027;48.576;9.180;2023-05-29T11:46:31;6.10;;;3.40;;
11935;SDS011;6027;48.576;9.180;2023-05-29T11:48:57;4.50;;;3.10;;
11935;SDS011;6027;48.576;9.180;2023-05-29T11:51:24;4.95;;;3.25;;
11935;SDS011;6027;48.576;9.180;2023-05-29T11:53:50;5.60;;;3.40;;
11935;SDS011;6027;48.576;9.180;2023-05-29T11:56:18;6.57;;;2.85;;
11935;SDS011;6027;48.576;9.180;2023-05-29T11:58:43;6.00;;;3.00;;
11935;SDS011;6027;48.576;9.180;2023-05-29T12:01:10;6.55;;;3.17;;
11935;SDS011;6027;48.576;9.180;2023-05-29T12:03:39;5.80;;;3.03;;
11935;SDS011;6027;48.576;9.180;2023-05-29T12:06:06;5.25;;;2.90;;
11935;SDS011;6027;48.576;9.180;2023-05-29T12:08:33;3.42;;;2.75;;
11935;SDS011;6027;48.576;9.180;2023-05-29T12:10:59;5.50;;;3.33;;
11935;SDS011;6027;48.576;9.180;2023-05-29T12:13:24;5.20;;;3.08;;
11935;SDS011;6027;48.576;9.180;2023-05-29T12:15:52;4.65;;;2.85;;
11935;SDS011;6027;48.576;9.180;2023-05-29T12:18:19;4.90;;;2.78;;
11935;SDS011;6027;48.576;9.180;2023-05-29T12:20:45;4.28;;;2.92;;
11935;SDS011;6027;48.576;9.180;2023-05-29T12:23:10;5.20;;;2.67;;
11935;SDS011;6027;48.576;9.180;2023-05-29T12:25:38;3.45;;;2.40;;
11935;SDS011;6027;48.576;9.180;2023-05-29T12:28:04;4.85;;;3.30;;
11935;SDS011;6027;48.576;9.180;2023-05-29T12:30:30;3.13;;;2.60;;
11935;SDS011;6027;48.576;9.180;2023-05-29T12:32:56;2.95;;;2.60;;
11935;SDS011;6027;48.576;9.180;2023-05-29T12:35:23;4.18;;;2.67;;
11935;SDS011;6027;48.576;9.180;2023-05-29T12:42:46;3.60;;;2.72;;
11935;SDS011;6027;48.576;9.180;2023-05-29T12:45:13;4.80;;;2.72;;
11935;SDS011;6027;48.576;9.180;2023-05-29T12:47:46;5.07;;;3.03;;
11935;SDS011;6027;48.576;9.180;2023-05-29T12:50:19;5.28;;;2.72;;
11935;SDS011;6027;48.576;9.180;2023-05-29T12:53:09;4.93;;;2.80;;
11935;SDS011;6027;48.576;9.180;2023-05-29T12:55:36;4.35;;;2.90;;
11935;SDS011;6027;48.576;9.180;2023-05-29T12:58:04;3.22;;;2.83;;
11935;SDS011;6027;48.576;9.180;2023-05-29T13:00:30;7.90;;;2.70;;
11935;SDS011;6027;48.576;9.180;2023-05-29T13:02:57;6.95;;;2.90;;
11935;SDS011;6027;48.576;9.180;2023-05-29T13:05:23;4.20;;;2.92;;
11935;SDS011;6027;48.576;9.180;2023-05-29T13:07:49;3.03;;;2.58;;
11935;SDS011;6027;48.576;9.180;2023-05-29T13:10:16;5.45;;;2.55;;
11935;SDS011;6027;48.576;9.180;2023-05-29T13:12:42;3.80;;;2.38;;
11935;SDS011;6027;48.576;9.180;2023-05-29T13:15:09;4.45;;;2.85;;
11935;SDS011;6027;48.576;9.180;2023-05-29T13:17:37;3.15;;;2.75;;
11935;SDS011;6027;48.576;9.180;2023-05-29T13:20:02;3.33;;;2.53;;
11935;SDS011;6027;48.576;9.180;2023-05-29T13:22:32;3.95;;;2.55;;
11935;SDS011;6027;48.576;9.180;2023-05-29T13:24:58;5.03;;;2.92;;
11935;SDS011;6027;48.576;9.180;2023-05-29T13:27:24;4.32;;;2.97;;
11935;SDS011;6027;48.576;9.180;2023-05-29T13:29:50;4.85;;;3.03;;
11935;SDS011;6027;48.576;9.180;2023-05-29T13:32:16;3.80;;;3.08;;
11935;SDS011;6027;48.576;9.180;2023-05-29T13:34:42;5.93;;;2.70;;
11935;SDS011;6027;48.576;9.180;2023-05-29T13:37:07;4.45;;;2.90;;
11935;SDS011;6027;48.576;9.180;2023-05-29T13:39:33;5.47;;;2.95;;
11935;SDS011;6027;48.576;9.180;2023-05-29T13:41:58;4.20;;;2.85;;
11935;SDS011;6027;48.576;9.180;2023-05-29T13:44:24;3.03;;;2.72;;
11935;SDS011;6027;48.576;9.180;2023-05-29T13:46:49;3.88;;;3.00;;
11935;SDS011;6027;48.576;9.180;2023-05-29T13:49:15;2.88;;;2.60;;
11935;SDS011;6027;48.576;9.180;2023-05-29T13:51:41;6.20;;;3.03;;
11935;SDS011;6027;48.576;9.180;2023-05-29T13:54:06;3.65;;;3.00;;
11935;SDS011;6027;48.576;9.180;2023-05-29T13:56:32;3.97;;;2.95;;
11935;SDS011;6027;48.576;9.180;2023-05-29T13:58:57;3.40;;;2.88;;
11935;SDS011;6027;48.576;9.180;2023-05-29T14:01:28;5.30;;;2.72;;
11935;SDS011;6027;48.576;9.180;2023-05-29T14:03:55;2.90;;;2.60;;
11935;SDS011;6027;48.576;9.180;2023-05-29T14:06:21;4.03;;;3.08;;
11935;SDS011;6027;48.576;9.180;2023-05-29T14:08:46;4.20;;;2.88;;
11935;SDS011;6027;48.576;9.180;2023-05-29T14:11:11;6.30;;;2.90;;
11935;SDS011;6027;48.576;9.180;2023-05-29T14:13:37;5.78;;;2.97;;
11935;SDS011;6027;48.576;9.180;2023-05-29T14:16:02;3.28;;;2.70;;
11935;SDS011;6027;48.576;9.180;2023-05-29T14:18:27;3.10;;;2.80;;
11935;SDS011;6027;48.576;9.180;2023-05-29T14:20:53;3.03;;;2.72;;
11935;SDS011;6027;48.576;9.180;2023-05-29T14:23:19;3.20;;;2.80;;
11935;SDS011;6027;48.576;9.180;2023-05-29T14:25:44;7.38;;;2.72;;
11935;SDS011;6027;48.576;9.180;2023-05-29T14:28:10;3.03;;;2.72;;
11935;SDS011;6027;48.576;9.180;2023-05-29T14:30:40;4.18;;;2.72;;
11935;SDS011;6027;48.576;9.180;2023-05-29T14:33:05;4.10;;;2.97;;
11935;SDS011;6027;48.576;9.180;2023-05-29T14:35:31;3.88;;;2.97;;
11935;SDS011;6027;48.576;9.180;2023-05-29T14:37:56;3.63;;;3.05;;
11935;SDS011;6027;48.576;9.180;2023-05-29T14:40:22;3.60;;;2.92;;
11935;SDS011;6027;48.576;9.180;2023-05-29T14:42:48;4.85;;;2.80;;
11935;SDS011;6027;48.576;9.180;2023-05-29T14:45:13;6.05;;;3.28;;
11935;SDS011;6027;48.576;9.180;2023-05-29T14:47:39;3.08;;;2.78;;
11935;SDS011;6027;48.576;9.180;2023-05-29T14:50:06;3.47;;;3.10;;
11935;SDS011;6027;48.576;9.180;2023-05-29T14:52:32;3.35;;;3.05;;
11935;SDS011;6027;48.576;9.180;2023-05-29T14:54:57;6.10;;;3.05;;
11935;SDS011;6027;48.576;9.180;2023-05-29T14:57:22;9.00;;;3.40;;
11935;SDS011;6027;48.576;9.180;2023-05-29T14:59:48;4.38;;;3.40;;
11935;SDS011;6027;48.576;9.180;2023-05-29T15:02:15;6.03;;;3.40;;
11935;SDS011;6027;48.576;9.180;2023-05-29T15:04:40;5.82;;;3.35;;
11935;SDS011;6027;48.576;9.180;2023-05-29T15:07:06;4.72;;;3.45;;
11935;SDS011;6027;48.576;9.180;2023-05-29T15:09:31;7.75;;;3.80;;
11935;SDS011;6027;48.576;9.180;2023-05-29T15:11:56;4.07;;;2.90;;
11935;SDS011;6027;48.576;9.180;2023-05-29T15:14:22;3.10;;;2.80;;
11935;SDS011;6027;48.576;9.180;2023-05-29T15:16:48;4.28;;;3.40;;
11935;SDS011;6027;48.576;9.180;2023-05-29T15:19:14;5.25;;;3.55;;
11935;SDS011;6027;48.576;9.180;2023-05-29T15:21:40;3.55;;;3.15;;
11935;SDS011;6027;48.576;9.180;2023-05-29T15:24:06;4.03;;;2.95;;
11935;SDS011;6027;48.576;9.180;2023-05-29T15:26:32;4.07;;;3.33;;
11935;SDS011;6027;48.576;9.180;2023-05-29T15:28:58;4.32;;;3.50;;
11935;SDS011;6027;48.576;9.180;2023-05-29T15:31:24;4.70;;;3.08;;
11935;SDS011;6027;48.576;9.180;2023-05-29T15:33:51;3.83;;;2.85;;
11935;SDS011;6027;48.576;9.180;2023-05-29T15:36:16;3.28;;;2.90;;
11935;SDS011;6027;48.576;9.180;2023-05-29T15:38:44;3.60;;;2.90;;
11935;SDS011;6027;48.576;9.180;2023-05-29T15:41:09;5.13;;;3.40;;